Heroic Leader — C6ZD2 — position and weather

sailwx.info

Track history (hours):
 
Tides and Currents Weather Stations Pressure Air Temp Water Temp Dewpoint Dewpoint Depression Visibility Wind Speed Wind Dir Waves Ship Positions

Heroic Leader

Last reported at 2015-Jul-25 20:07 UTC. Time now 2015-Jul-28 15:22 UTC.
Position N 31°21' E 032°20'.

Length 200 m; draft 9.8 m.

Type: Cargo ship. MMSI: 311052700.

Date/timePositionNaut miles runAvg speedWind from/ knotsBaromVisibWave heightAir tempDewpointWater temp
2015-Jul-25 20:07N 31°21' E 032°20'0 0.0
2015-Jul-25 17:19N 31°21' E 032°20'0 0.0
2015-Jul-25 16:31N 31°21' E 032°20'0 0.0
2015-Jul-25 15:13N 31°21' E 032°20'0 0.0
2015-Jul-25 14:31N 31°21' E 032°20'0 0.0
2015-Jul-25 13:31N 31°21' E 032°20'0 0.0
2015-Jul-25 12:31N 31°21' E 032°20'0 0.0
2015-Jul-25 11:19N 31°21' E 032°20'0 0.0
2015-Jul-25 10:25N 31°21' E 032°20'0 0.0
2015-Jul-25 08:25N 31°21' E 032°20'0 0.0
2015-Jul-25 07:28N 31°21' E 032°20'0 0.0
2015-Jul-25 06:31N 31°21' E 032°20'0 0.0
2015-Jul-25 05:31N 31°21' E 032°20'0 0.0
2015-Jul-25 04:31N 31°21' E 032°20'0 0.0
2015-Jul-25 03:31N 31°21' E 032°20'0 0.0
2015-Jul-25 00:28N 31°21' E 032°20'0 0.0
2015-Jul-24 22:31N 31°21' E 032°20'0 0.0
2015-Jul-24 19:31N 31°21' E 032°20'0 0.0
2015-Jul-24 18:31N 31°21' E 032°20'0 0.0
2015-Jul-24 14:31N 31°21' E 032°20'5 4.8
2015-Jul-24 13:33N 31°26' E 032°18'1010.4
2015-Jul-24 12:33N 31°33' E 032°10'1110.8
2015-Jul-24 11:33N 31°41' E 032°01'8010.6
2015-Jul-24 04:04N 32°40' E 030°58'57 9.6
2015-Jul-23 22:07N 33°23' E 030°12'1010.0
2015-Jul-23 21:07N 33°30' E 030°04'1910.3
2015-Jul-23 19:14N 33°44' E 029°48'710.4
2015-Jul-23 18:33N 33°50' E 029°43'1110.6
2015-Jul-23 17:32N 33°58' E 029°34'1310.5
2015-Jul-23 16:17N 34°08' E 029°24'810.5
2015-Jul-23 15:33N 34°14' E 029°18'1110.5
2015-Jul-23 14:33N 34°21' E 029°09'10 9.6
2015-Jul-23 13:33N 34°28' E 029°02'1 1.2
2015-Jul-23 12:32N 34°29' E 029°00'1 0.9
2015-Jul-23 11:27N 34°30' E 028°60'1010.8
2015-Jul-23 10:34N 34°37' E 028°52'3315.4
2015-Jul-23 08:26N 35°01' E 028°25'3415.8
2015-Jul-23 06:17N 35°26' E 027°58'1115.3
2015-Jul-23 05:33N 35°35' E 027°49'9515.6
2015-Jul-22 23:30N 36°44' E 026°28'1516.1
2015-Jul-22 22:33N 36°55' E 026°15'1715.5
2015-Jul-22 21:27N 37°10' E 026°05'1615.3
2015-Jul-22 20:25N 37°24' E 025°55'1314.9
2015-Jul-22 19:33N 37°35' E 025°49'228 6.3
2015-Jul-21 07:23N 40°25' E 029°05'3 3.7
2015-Jul-21 06:30N 40°25' E 029°01'1 1.4
2015-Jul-21 05:33N 40°24' E 028°59'0 0.2
2015-Jul-21 04:28N 40°24' E 028°59'0 0.2
2015-Jul-21 03:31N 40°24' E 028°59'11 0.7
2015-Jul-20 12:32N 40°29' E 028°47'15412.5
2015-Jul-20 00:17N 39°33' E 025°40'19314.8
2015-Jul-19 11:11N 36°45' E 023°38'37814.7
2015-Jul-18 09:28N 37°50' E 015°49'1415.0
2015-Jul-18 08:33N 37°56' E 015°34'1515.4
2015-Jul-18 07:33N 38°11' E 015°36'1312.6
2015-Jul-18 06:33N 38°24' E 015°37'1615.9
2015-Jul-18 05:33N 38°39' E 015°29'1615.7
2015-Jul-18 04:33N 38°52' E 015°19'1616.0
2015-Jul-18 03:32N 39°04' E 015°04'1616.0
2015-Jul-18 02:30N 39°14' E 014°47'1515.8
2015-Jul-18 01:33N 39°23' E 014°32'1615.9
2015-Jul-18 00:33N 39°34' E 014°17'1615.9
2015-Jul-17 23:33N 39°44' E 014°01'1616.0
2015-Jul-17 22:33N 39°54' E 013°44'2015.6
2015-Jul-17 21:16N 40°07' E 013°25'1115.6
2015-Jul-17 20:33N 40°14' E 013°14'1615.5
2015-Jul-17 19:33N 40°24' E 012°58'1615.8
2015-Jul-17 18:33N 40°34' E 012°41'1615.9
2015-Jul-17 17:33N 40°44' E 012°26'1615.9
2015-Jul-17 16:33N 40°55' E 012°10'1615.8
2015-Jul-17 15:33N 41°05' E 011°54'1615.9
2015-Jul-17 14:33N 41°15' E 011°37'1615.8
2015-Jul-17 13:33N 41°25' E 011°21'1615.8
2015-Jul-17 12:33N 41°35' E 011°05'1615.7
2015-Jul-17 11:33N 41°45' E 010°49'1515.5
2015-Jul-17 10:33N 41°55' E 010°33'5814.4
2015-Jul-17 06:33N 42°41' E 009°46'1515.3
2015-Jul-17 05:33N 42°56' E 009°40'1515.0
2015-Jul-17 04:33N 43°09' E 009°30'1515.2
2015-Jul-17 03:33N 43°21' E 009°18'1514.9
2015-Jul-17 02:33N 43°33' E 009°07'1514.7
2015-Jul-17 01:33N 43°47' E 008°58'1515.3
2015-Jul-17 00:34N 44°00' E 008°48'1615.6
2015-Jul-16 23:33N 44°13' E 008°37'7 7.1
2015-Jul-16 22:32N 44°19' E 008°30'0 0.0
2015-Jul-16 21:29N 44°19' E 008°30'0 0.0
2015-Jul-16 20:32N 44°19' E 008°30'0 0.0
2015-Jul-16 19:29N 44°19' E 008°30'0 0.0
2015-Jul-16 18:32N 44°19' E 008°30'0 0.0
2015-Jul-16 17:29N 44°19' E 008°30'0 0.0
2015-Jul-16 16:29N 44°19' E 008°30'0 0.0
2015-Jul-16 15:32N 44°19' E 008°30'0 0.0
2015-Jul-16 14:32N 44°19' E 008°30'0 0.0
2015-Jul-16 13:23N 44°19' E 008°30'0 0.0
2015-Jul-16 12:29N 44°19' E 008°30'0 0.0
2015-Jul-16 11:32N 44°19' E 008°30'0 0.0
2015-Jul-16 10:32N 44°19' E 008°30'0 0.0
2015-Jul-16 09:29N 44°19' E 008°30'0 0.0
2015-Jul-16 08:32N 44°19' E 008°30'0 0.0
2015-Jul-16 07:29N 44°19' E 008°30'0 0.0
2015-Jul-16 06:29N 44°19' E 008°30'0 0.0
2015-Jul-16 05:29N 44°19' E 008°30'0 0.0
2015-Jul-16 04:29N 44°19' E 008°30'1 0.7
2015-Jul-16 03:33N 44°19' E 008°31'4 4.0
2015-Jul-16 02:34N 44°16' E 008°35'7 7.3
2015-Jul-16 01:34N 44°09' E 008°33'9 8.9
2015-Jul-16 00:33N 44°01' E 008°26'9 9.3
2015-Jul-15 23:34N 43°54' E 008°18'9 9.3
2015-Jul-15 22:34N 43°47' E 008°10'9 9.1
2015-Jul-15 21:33N 43°41' E 008°01'9 9.1
2015-Jul-15 20:33N 43°35' E 007°51'  
Track history (hours):
 
Tides and Currents Weather Stations Pressure Air Temp Water Temp Dewpoint Dewpoint Depression Visibility Wind Speed Wind Dir Waves Ship Positions

Heroic Leader

Last reported at 2015-Jul-25 20:07 UTC. Time now 2015-Jul-28 15:22 UTC.
Position N 31°21' E 032°20'.

Length 200 m; draft 9.8 m.

Type: Cargo ship. MMSI: 311052700.

Date/timePositionNaut miles runAvg speedWind from/ knotsBaromVisibWave heightAir tempDewpointWater temp
2015-Jul-25 20:07N 31°21' E 032°20'0 0.0
2015-Jul-25 17:19N 31°21' E 032°20'0 0.0
2015-Jul-25 16:31N 31°21' E 032°20'0 0.0
2015-Jul-25 15:13N 31°21' E 032°20'0 0.0
2015-Jul-25 14:31N 31°21' E 032°20'0 0.0
2015-Jul-25 13:31N 31°21' E 032°20'0 0.0
2015-Jul-25 12:31N 31°21' E 032°20'0 0.0
2015-Jul-25 11:19N 31°21' E 032°20'0 0.0
2015-Jul-25 10:25N 31°21' E 032°20'0 0.0
2015-Jul-25 08:25N 31°21' E 032°20'0 0.0
2015-Jul-25 07:28N 31°21' E 032°20'0 0.0
2015-Jul-25 06:31N 31°21' E 032°20'0 0.0
2015-Jul-25 05:31N 31°21' E 032°20'0 0.0
2015-Jul-25 04:31N 31°21' E 032°20'0 0.0
2015-Jul-25 03:31N 31°21' E 032°20'0 0.0
2015-Jul-25 00:28N 31°21' E 032°20'0 0.0
2015-Jul-24 22:31N 31°21' E 032°20'0 0.0
2015-Jul-24 19:31N 31°21' E 032°20'0 0.0
2015-Jul-24 18:31N 31°21' E 032°20'0 0.0
2015-Jul-24 14:31N 31°21' E 032°20'5 4.8
2015-Jul-24 13:33N 31°26' E 032°18'1010.4
2015-Jul-24 12:33N 31°33' E 032°10'1110.8
2015-Jul-24 11:33N 31°41' E 032°01'8010.6
2015-Jul-24 04:04N 32°40' E 030°58'57 9.6
2015-Jul-23 22:07N 33°23' E 030°12'1010.0
2015-Jul-23 21:07N 33°30' E 030°04'1910.3
2015-Jul-23 19:14N 33°44' E 029°48'710.4
2015-Jul-23 18:33N 33°50' E 029°43'1110.6
2015-Jul-23 17:32N 33°58' E 029°34'1310.5
2015-Jul-23 16:17N 34°08' E 029°24'810.5
2015-Jul-23 15:33N 34°14' E 029°18'1110.5
2015-Jul-23 14:33N 34°21' E 029°09'10 9.6
2015-Jul-23 13:33N 34°28' E 029°02'1 1.2
2015-Jul-23 12:32N 34°29' E 029°00'1 0.9
2015-Jul-23 11:27N 34°30' E 028°60'1010.8
2015-Jul-23 10:34N 34°37' E 028°52'3315.4
2015-Jul-23 08:26N 35°01' E 028°25'3415.8
2015-Jul-23 06:17N 35°26' E 027°58'1115.3
2015-Jul-23 05:33N 35°35' E 027°49'9515.6
2015-Jul-22 23:30N 36°44' E 026°28'1516.1
2015-Jul-22 22:33N 36°55' E 026°15'1715.5
2015-Jul-22 21:27N 37°10' E 026°05'1615.3
2015-Jul-22 20:25N 37°24' E 025°55'1314.9
2015-Jul-22 19:33N 37°35' E 025°49'228 6.3
2015-Jul-21 07:23N 40°25' E 029°05'3 3.7
2015-Jul-21 06:30N 40°25' E 029°01'1 1.4
2015-Jul-21 05:33N 40°24' E 028°59'0 0.2
2015-Jul-21 04:28N 40°24' E 028°59'0 0.2
2015-Jul-21 03:31N 40°24' E 028°59'11 0.7
2015-Jul-20 12:32N 40°29' E 028°47'15412.5
2015-Jul-20 00:17N 39°33' E 025°40'19314.8
2015-Jul-19 11:11N 36°45' E 023°38'37814.7
2015-Jul-18 09:28N 37°50' E 015°49'1415.0
2015-Jul-18 08:33N 37°56' E 015°34'1515.4
2015-Jul-18 07:33N 38°11' E 015°36'1312.6
2015-Jul-18 06:33N 38°24' E 015°37'1615.9
2015-Jul-18 05:33N 38°39' E 015°29'1615.7
2015-Jul-18 04:33N 38°52' E 015°19'1616.0
2015-Jul-18 03:32N 39°04' E 015°04'1616.0
2015-Jul-18 02:30N 39°14' E 014°47'1515.8
2015-Jul-18 01:33N 39°23' E 014°32'1615.9
2015-Jul-18 00:33N 39°34' E 014°17'1615.9
2015-Jul-17 23:33N 39°44' E 014°01'1616.0
2015-Jul-17 22:33N 39°54' E 013°44'2015.6
2015-Jul-17 21:16N 40°07' E 013°25'1115.6
2015-Jul-17 20:33N 40°14' E 013°14'1615.5
2015-Jul-17 19:33N 40°24' E 012°58'1615.8
2015-Jul-17 18:33N 40°34' E 012°41'1615.9
2015-Jul-17 17:33N 40°44' E 012°26'1615.9
2015-Jul-17 16:33N 40°55' E 012°10'1615.8
2015-Jul-17 15:33N 41°05' E 011°54'1615.9
2015-Jul-17 14:33N 41°15' E 011°37'1615.8
2015-Jul-17 13:33N 41°25' E 011°21'1615.8
2015-Jul-17 12:33N 41°35' E 011°05'1615.7
2015-Jul-17 11:33N 41°45' E 010°49'1515.5
2015-Jul-17 10:33N 41°55' E 010°33'5814.4
2015-Jul-17 06:33N 42°41' E 009°46'1515.3
2015-Jul-17 05:33N 42°56' E 009°40'1515.0
2015-Jul-17 04:33N 43°09' E 009°30'1515.2
2015-Jul-17 03:33N 43°21' E 009°18'1514.9
2015-Jul-17 02:33N 43°33' E 009°07'1514.7
2015-Jul-17 01:33N 43°47' E 008°58'1515.3
2015-Jul-17 00:34N 44°00' E 008°48'1615.6
2015-Jul-16 23:33N 44°13' E 008°37'7 7.1
2015-Jul-16 22:32N 44°19' E 008°30'0 0.0
2015-Jul-16 21:29N 44°19' E 008°30'0 0.0
2015-Jul-16 20:32N 44°19' E 008°30'0 0.0
2015-Jul-16 19:29N 44°19' E 008°30'0 0.0
2015-Jul-16 18:32N 44°19' E 008°30'0 0.0
2015-Jul-16 17:29N 44°19' E 008°30'0 0.0
2015-Jul-16 16:29N 44°19' E 008°30'0 0.0
2015-Jul-16 15:32N 44°19' E 008°30'0 0.0
2015-Jul-16 14:32N 44°19' E 008°30'0 0.0
2015-Jul-16 13:23N 44°19' E 008°30'0 0.0
2015-Jul-16 12:29N 44°19' E 008°30'0 0.0
2015-Jul-16 11:32N 44°19' E 008°30'0 0.0
2015-Jul-16 10:32N 44°19' E 008°30'0 0.0
2015-Jul-16 09:29N 44°19' E 008°30'0 0.0
2015-Jul-16 08:32N 44°19' E 008°30'0 0.0
2015-Jul-16 07:29N 44°19' E 008°30'0 0.0
2015-Jul-16 06:29N 44°19' E 008°30'0 0.0
2015-Jul-16 05:29N 44°19' E 008°30'0 0.0
2015-Jul-16 04:29N 44°19' E 008°30'1 0.7
2015-Jul-16 03:33N 44°19' E 008°31'4 4.0
2015-Jul-16 02:34N 44°16' E 008°35'7 7.3
2015-Jul-16 01:34N 44°09' E 008°33'9 8.9
2015-Jul-16 00:33N 44°01' E 008°26'9 9.3
2015-Jul-15 23:34N 43°54' E 008°18'9 9.3
2015-Jul-15 22:34N 43°47' E 008°10'9 9.1
2015-Jul-15 21:33N 43°41' E 008°01'9 9.1
2015-Jul-15 20:33N 43°35' E 007°51'  

Dump ship's entire track history